sensor_id;sensor_type;location;lat;lon;timestamp;temperature;humidity
37478;DHT22;23334;54.316;10.182;2023-06-19T00:02:09;14.60;99.90
37478;DHT22;23334;54.316;10.182;2023-06-19T00:04:34;14.60;99.90
37478;DHT22;23334;54.316;10.182;2023-06-19T00:07:00;14.50;99.90
37478;DHT22;23334;54.316;10.182;2023-06-19T00:09:26;14.50;99.90
37478;DHT22;23334;54.316;10.182;2023-06-19T00:14:18;14.50;99.90
37478;DHT22;23334;54.316;10.182;2023-06-19T00:21:37;14.40;99.90
37478;DHT22;23334;54.316;10.182;2023-06-19T00:26:29;14.40;99.90
37478;DHT22;23334;54.316;10.182;2023-06-19T00:28:55;14.40;99.90
37478;DHT22;23334;54.316;10.182;2023-06-19T00:31:21;14.30;99.90
37478;DHT22;23334;54.316;10.182;2023-06-19T00:36:16;14.30;99.90
37478;DHT22;23334;54.316;10.182;2023-06-19T00:38:50;14.30;99.90
37478;DHT22;23334;54.316;10.182;2023-06-19T00:41:15;14.20;99.90
37478;DHT22;23334;54.316;10.182;2023-06-19T00:43:42;14.30;99.90
37478;DHT22;23334;54.316;10.182;2023-06-19T00:48:34;14.20;99.90
37478;DHT22;23334;54.316;10.182;2023-06-19T00:51:00;14.20;99.90
37478;DHT22;23334;54.316;10.182;2023-06-19T00:53:26;14.20;99.90
37478;DHT22;23334;54.316;10.182;2023-06-19T00:55:53;14.20;99.90
37478;DHT22;23334;54.316;10.182;2023-06-19T00:58:20;14.20;99.90
37478;DHT22;23334;54.316;10.182;2023-06-19T01:03:13;14.10;99.90
37478;DHT22;23334;54.316;10.182;2023-06-19T01:05:38;14.10;99.90
37478;DHT22;23334;54.316;10.182;2023-06-19T01:08:10;14.20;99.90
37478;DHT22;23334;54.316;10.182;2023-06-19T01:10:40;14.20;99.90
37478;DHT22;23334;54.316;10.182;2023-06-19T01:13:22;14.20;99.90
37478;DHT22;23334;54.316;10.182;2023-06-19T01:15:50;14.20;99.90
37478;DHT22;23334;54.316;10.182;2023-06-19T01:18:16;14.20;99.90
37478;DHT22;23334;54.316;10.182;2023-06-19T01:20:42;14.20;99.90
37478;DHT22;23334;54.316;10.182;2023-06-19T01:23:09;14.30;99.90
37478;DHT22;23334;54.316;10.182;2023-06-19T01:25:34;14.30;99.90
37478;DHT22;23334;54.316;10.182;2023-06-19T01:28:01;14.30;99.90
37478;DHT22;23334;54.316;10.182;2023-06-19T01:33:09;14.30;99.90
37478;DHT22;23334;54.316;10.182;2023-06-19T01:35:40;14.30;99.90
37478;DHT22;23334;54.316;10.182;2023-06-19T01:38:07;14.30;99.90
37478;DHT22;23334;54.316;10.182;2023-06-19T01:40:34;14.30;99.90
37478;DHT22;23334;54.316;10.182;2023-06-19T01:43:01;14.30;99.90
37478;DHT22;23334;54.316;10.182;2023-06-19T01:45:30;14.30;99.90
37478;DHT22;23334;54.316;10.182;2023-06-19T01:47:56;14.20;99.90
37478;DHT22;23334;54.316;10.182;2023-06-19T01:50:22;14.20;99.90
37478;DHT22;23334;54.316;10.182;2023-06-19T01:52:50;14.20;99.90
37478;DHT22;23334;54.316;10.182;2023-06-19T01:55:15;14.20;99.90
37478;DHT22;23334;54.316;10.182;2023-06-19T01:57:41;14.20;99.90
37478;DHT22;23334;54.316;10.182;2023-06-19T02:00:07;14.20;99.90
37478;DHT22;23334;54.316;10.182;2023-06-19T02:04:59;14.10;99.90
37478;DHT22;23334;54.316;10.182;2023-06-19T02:07:24;14.10;99.90
37478;DHT22;23334;54.316;10.182;2023-06-19T02:12:15;14.00;99.90
37478;DHT22;23334;54.316;10.182;2023-06-19T02:14:41;14.00;99.90
37478;DHT22;23334;54.316;10.182;2023-06-19T02:24:24;13.90;99.90
37478;DHT22;23334;54.316;10.182;2023-06-19T02:26:50;13.90;99.90
37478;DHT22;23334;54.316;10.182;2023-06-19T02:29:16;14.00;99.90
37478;DHT22;23334;54.316;10.182;2023-06-19T02:31:41;14.10;99.90
37478;DHT22;23334;54.316;10.182;2023-06-19T02:36:34;14.20;99.90
37478;DHT22;23334;54.316;10.182;2023-06-19T02:43:52;14.60;99.90
37478;DHT22;23334;54.316;10.182;2023-06-19T02:46:18;14.60;99.90
37478;DHT22;23334;54.316;10.182;2023-06-19T02:48:43;14.70;99.90
37478;DHT22;23334;54.316;10.182;2023-06-19T02:53:35;15.00;99.90
37478;DHT22;23334;54.316;10.182;2023-06-19T02:56:00;15.10;99.90
37478;DHT22;23334;54.316;10.182;2023-06-19T02:58:26;15.20;99.90
37478;DHT22;23334;54.316;10.182;2023-06-19T03:03:18;15.30;99.90
37478;DHT22;23334;54.316;10.182;2023-06-19T03:08:09;15.50;99.90
37478;DHT22;23334;54.316;10.182;2023-06-19T03:13:01;15.70;99.90
37478;DHT22;23334;54.316;10.182;2023-06-19T03:15:28;15.80;99.90
37478;DHT22;23334;54.316;10.182;2023-06-19T03:17:53;15.90;99.90
37478;DHT22;23334;54.316;10.182;2023-06-19T03:20:19;16.00;99.90
37478;DHT22;23334;54.316;10.182;2023-06-19T03:22:46;16.10;99.90
37478;DHT22;23334;54.316;10.182;2023-06-19T03:27:37;16.30;99.90
37478;DHT22;23334;54.316;10.182;2023-06-19T03:30:04;16.40;99.90
37478;DHT22;23334;54.316;10.182;2023-06-19T03:34:58;16.60;99.90
37478;DHT22;23334;54.316;10.182;2023-06-19T03:39:50;16.70;99.90
37478;DHT22;23334;54.316;10.182;2023-06-19T03:42:16;16.80;99.90
37478;DHT22;23334;54.316;10.182;2023-06-19T03:47:07;17.00;99.90
37478;DHT22;23334;54.316;10.182;2023-06-19T03:49:33;17.00;99.90
37478;DHT22;23334;54.316;10.182;2023-06-19T03:51:58;17.10;99.90
37478;DHT22;23334;54.316;10.182;2023-06-19T03:56:51;17.20;99.90
37478;DHT22;23334;54.316;10.182;2023-06-19T03:59:17;17.30;99.90
37478;DHT22;23334;54.316;10.182;2023-06-19T04:01:42;17.30;99.90
37478;DHT22;23334;54.316;10.182;2023-06-19T04:06:35;17.30;99.90
37478;DHT22;23334;54.316;10.182;2023-06-19T04:09:00;17.40;99.90
37478;DHT22;23334;54.316;10.182;2023-06-19T04:18:44;17.50;99.90
37478;DHT22;23334;54.316;10.182;2023-06-19T04:21:09;17.50;99.90
37478;DHT22;23334;54.316;10.182;2023-06-19T04:23:36;17.60;99.90
37478;DHT22;23334;54.316;10.182;2023-06-19T04:26:01;17.60;99.90
37478;DHT22;23334;54.316;10.182;2023-06-19T04:28:27;17.60;99.90
37478;DHT22;23334;54.316;10.182;2023-06-19T04:30:53;17.70;99.90
37478;DHT22;23334;54.316;10.182;2023-06-19T04:33:27;17.80;99.90
37478;DHT22;23334;54.316;10.182;2023-06-19T04:35:52;17.90;99.90
37478;DHT22;23334;54.316;10.182;2023-06-19T04:40:43;18.10;99.90
37478;DHT22;23334;54.316;10.182;2023-06-19T04:43:09;18.30;99.90
37478;DHT22;23334;54.316;10.182;2023-06-19T04:45:35;18.40;99.90
37478;DHT22;23334;54.316;10.182;2023-06-19T04:50:29;18.60;99.90
37478;DHT22;23334;54.316;10.182;2023-06-19T04:55:24;18.70;99.90
37478;DHT22;23334;54.316;10.182;2023-06-19T04:57:50;18.80;99.90
37478;DHT22;23334;54.316;10.182;2023-06-19T05:00:16;18.90;99.90
37478;DHT22;23334;54.316;10.182;2023-06-19T05:02:44;18.90;99.90
37478;DHT22;23334;54.316;10.182;2023-06-19T05:05:13;18.90;99.90
37478;DHT22;23334;54.316;10.182;2023-06-19T05:07:42;19.10;99.90
37478;DHT22;23334;54.316;10.182;2023-06-19T05:10:13;19.00;99.90
37478;DHT22;23334;54.316;10.182;2023-06-19T05:12:39;19.10;99.90
37478;DHT22;23334;54.316;10.182;2023-06-19T05:15:06;19.10;99.90
37478;DHT22;23334;54.316;10.182;2023-06-19T05:17:32;19.00;99.90
37478;DHT22;23334;54.316;10.182;2023-06-19T05:19:57;19.00;99.90
37478;DHT22;23334;54.316;10.182;2023-06-19T05:22:23;19.00;99.90
37478;DHT22;23334;54.316;10.182;2023-06-19T05:27:15;19.10;99.90
37478;DHT22;23334;54.316;10.182;2023-06-19T05:29:40;19.10;99.90
37478;DHT22;23334;54.316;10.182;2023-06-19T05:32:06;19.10;99.90
37478;DHT22;23334;54.316;10.182;2023-06-19T05:34:33;19.10;99.90
37478;DHT22;23334;54.316;10.182;2023-06-19T05:37:00;19.10;99.90
37478;DHT22;23334;54.316;10.182;2023-06-19T05:39:28;19.10;99.90
37478;DHT22;23334;54.316;10.182;2023-06-19T05:44:22;19.20;99.90
37478;DHT22;23334;54.316;10.182;2023-06-19T05:46:48;19.10;99.90
37478;DHT22;23334;54.316;10.182;2023-06-19T05:51:41;19.20;99.90
37478;DHT22;23334;54.316;10.182;2023-06-19T05:54:08;19.20;99.90
37478;DHT22;23334;54.316;10.182;2023-06-19T05:56:35;19.30;99.90
37478;DHT22;23334;54.316;10.182;2023-06-19T06:01:27;19.30;99.90
37478;DHT22;23334;54.316;10.182;2023-06-19T06:03:54;19.30;99.90
37478;DHT22;23334;54.316;10.182;2023-06-19T06:08:45;19.40;99.90
37478;DHT22;23334;54.316;10.182;2023-06-19T06:11:11;19.40;99.90
37478;DHT22;23334;54.316;10.182;2023-06-19T06:16:05;19.50;99.90
37478;DHT22;23334;54.316;10.182;2023-06-19T06:18:33;19.50;99.90
37478;DHT22;23334;54.316;10.182;2023-06-19T06:25:51;19.60;99.90
37478;DHT22;23334;54.316;10.182;2023-06-19T06:28:16;19.60;99.90
37478;DHT22;23334;54.316;10.182;2023-06-19T06:40:27;19.70;99.90
37478;DHT22;23334;54.316;10.182;2023-06-19T06:42:53;19.70;99.90
37478;DHT22;23334;54.316;10.182;2023-06-19T06:45:19;19.70;99.90
37478;DHT22;23334;54.316;10.182;2023-06-19T06:47:44;19.70;99.90
37478;DHT22;23334;54.316;10.182;2023-06-19T06:50:10;19.70;99.90
37478;DHT22;23334;54.316;10.182;2023-06-19T06:52:36;19.70;99.90
37478;DHT22;23334;54.316;10.182;2023-06-19T06:55:03;19.80;99.90
37478;DHT22;23334;54.316;10.182;2023-06-19T06:57:28;19.80;99.90
37478;DHT22;23334;54.316;10.182;2023-06-19T06:59:54;19.80;99.90
37478;DHT22;23334;54.316;10.182;2023-06-19T07:04:46;20.00;99.90
37478;DHT22;23334;54.316;10.182;2023-06-19T07:07:11;20.10;99.90
37478;DHT22;23334;54.316;10.182;2023-06-19T07:09:37;20.10;99.90
37478;DHT22;23334;54.316;10.182;2023-06-19T07:12:02;20.20;99.90
37478;DHT22;23334;54.316;10.182;2023-06-19T07:14:30;20.40;99.90
37478;DHT22;23334;54.316;10.182;2023-06-19T07:19:21;20.70;99.90
37478;DHT22;23334;54.316;10.182;2023-06-19T07:21:49;20.80;99.90
37478;DHT22;23334;54.316;10.182;2023-06-19T07:31:33;21.10;99.90
37478;DHT22;23334;54.316;10.182;2023-06-19T07:33:59;21.20;99.90
37478;DHT22;23334;54.316;10.182;2023-06-19T07:36:24;21.20;99.90
37478;DHT22;23334;54.316;10.182;2023-06-19T07:38:51;21.20;99.90
37478;DHT22;23334;54.316;10.182;2023-06-19T07:41:16;21.10;99.90
37478;DHT22;23334;54.316;10.182;2023-06-19T07:46:09;21.10;99.90
37478;DHT22;23334;54.316;10.182;2023-06-19T07:55:53;20.90;99.90
37478;DHT22;23334;54.316;10.182;2023-06-19T08:00:44;20.60;99.90
37478;DHT22;23334;54.316;10.182;2023-06-19T08:03:10;20.50;99.90
37478;DHT22;23334;54.316;10.182;2023-06-19T08:05:35;20.50;99.90
37478;DHT22;23334;54.316;10.182;2023-06-19T08:17:44;20.30;99.90
37478;DHT22;23334;54.316;10.182;2023-06-19T08:20:10;20.20;99.90
37478;DHT22;23334;54.316;10.182;2023-06-19T08:22:36;20.20;99.90
37478;DHT22;23334;54.316;10.182;2023-06-19T08:25:04;20.20;99.90
37478;DHT22;23334;54.316;10.182;2023-06-19T08:27:30;20.10;99.90
37478;DHT22;23334;54.316;10.182;2023-06-19T08:32:22;19.90;99.90
37478;DHT22;23334;54.316;10.182;2023-06-19T08:34:48;19.80;99.90
37478;DHT22;23334;54.316;10.182;2023-06-19T08:42:08;19.60;99.90
37478;DHT22;23334;54.316;10.182;2023-06-19T08:44:37;19.50;99.90
37478;DHT22;23334;54.316;10.182;2023-06-19T08:47:03;19.50;99.90
37478;DHT22;23334;54.316;10.182;2023-06-19T08:56:48;19.80;99.90
37478;DHT22;23334;54.316;10.182;2023-06-19T08:59:15;19.90;99.90
37478;DHT22;23334;54.316;10.182;2023-06-19T09:01:47;20.00;99.90
37478;DHT22;23334;54.316;10.182;2023-06-19T09:04:21;20.20;99.90
37478;DHT22;23334;54.316;10.182;2023-06-19T09:06:50;20.40;99.90
37478;DHT22;23334;54.316;10.182;2023-06-19T09:09:19;20.70;99.90
37478;DHT22;23334;54.316;10.182;2023-06-19T09:11:57;21.30;99.90
37478;DHT22;23334;54.316;10.182;2023-06-19T09:14:34;21.80;99.90
37478;DHT22;23334;54.316;10.182;2023-06-19T09:17:01;22.40;99.90
37478;DHT22;23334;54.316;10.182;2023-06-19T09:19:27;22.60;99.90
37478;DHT22;23334;54.316;10.182;2023-06-19T09:24:18;22.80;99.90
37478;DHT22;23334;54.316;10.182;2023-06-19T09:29:11;22.70;99.90
37478;DHT22;23334;54.316;10.182;2023-06-19T09:31:37;22.70;99.90
37478;DHT22;23334;54.316;10.182;2023-06-19T09:36:31;22.80;99.90
37478;DHT22;23334;54.316;10.182;2023-06-19T09:38:59;23.20;99.90
37478;DHT22;23334;54.316;10.182;2023-06-19T09:43:55;27.50;99.90
37478;DHT22;23334;54.316;10.182;2023-06-19T09:46:28;29.40;99.90
37478;DHT22;23334;54.316;10.182;2023-06-19T09:48:55;29.00;99.90
37478;DHT22;23334;54.316;10.182;2023-06-19T09:51:29;29.30;99.90
37478;DHT22;23334;54.316;10.182;2023-06-19T09:53:57;30.00;99.90
37478;DHT22;23334;54.316;10.182;2023-06-19T09:56:24;30.70;99.90
37478;DHT22;23334;54.316;10.182;2023-06-19T09:58:53;31.20;99.90
37478;DHT22;23334;54.316;10.182;2023-06-19T10:01:20;31.50;99.90
37478;DHT22;23334;54.316;10.182;2023-06-19T10:06:16;32.80;96.50
37478;DHT22;23334;54.316;10.182;2023-06-19T10:08:43;33.20;95.20
37478;DHT22;23334;54.316;10.182;2023-06-19T10:11:10;33.60;92.60
37478;DHT22;23334;54.316;10.182;2023-06-19T10:13:37;34.20;90.90
37478;DHT22;23334;54.316;10.182;2023-06-19T10:16:06;34.70;85.40
37478;DHT22;23334;54.316;10.182;2023-06-19T10:18:44;34.20;81.50
37478;DHT22;23334;54.316;10.182;2023-06-19T10:21:19;33.10;81.40
37478;DHT22;23334;54.316;10.182;2023-06-19T10:23:55;31.50;88.90
37478;DHT22;23334;54.316;10.182;2023-06-19T10:26:32;30.90;90.80
37478;DHT22;23334;54.316;10.182;2023-06-19T10:29:01;30.40;91.80
37478;DHT22;23334;54.316;10.182;2023-06-19T10:31:26;30.10;93.00
37478;DHT22;23334;54.316;10.182;2023-06-19T10:36:22;29.50;92.70
37478;DHT22;23334;54.316;10.182;2023-06-19T10:41:20;28.60;95.20
37478;DHT22;23334;54.316;10.182;2023-06-19T10:43:55;28.60;95.50
37478;DHT22;23334;54.316;10.182;2023-06-19T10:46:22;28.50;95.50
37478;DHT22;23334;54.316;10.182;2023-06-19T10:51:18;27.90;96.40
37478;DHT22;23334;54.316;10.182;2023-06-19T10:58:36;28.60;96.90
37478;DHT22;23334;54.316;10.182;2023-06-19T11:01:01;28.90;96.70
37478;DHT22;23334;54.316;10.182;2023-06-19T11:03:27;28.70;96.10
37478;DHT22;23334;54.316;10.182;2023-06-19T11:08:20;29.20;95.80
37478;DHT22;23334;54.316;10.182;2023-06-19T11:10:46;29.10;95.60
37478;DHT22;23334;54.316;10.182;2023-06-19T11:13:17;28.80;96.20
37478;DHT22;23334;54.316;10.182;2023-06-19T11:15:43;29.10;96.40
37478;DHT22;23334;54.316;10.182;2023-06-19T11:18:08;28.80;96.00
37478;DHT22;23334;54.316;10.182;2023-06-19T11:20:48;28.50;96.90
37478;DHT22;23334;54.316;10.182;2023-06-19T11:23:15;28.40;97.60
37478;DHT22;23334;54.316;10.182;2023-06-19T11:25:42;28.60;97.30
37478;DHT22;23334;54.316;10.182;2023-06-19T11:28:13;28.90;96.80
37478;DHT22;23334;54.316;10.182;2023-06-19T11:33:21;29.30;96.70
37478;DHT22;23334;54.316;10.182;2023-06-19T11:35:51;29.70;96.00
37478;DHT22;23334;54.316;10.182;2023-06-19T11:38:21;29.70;95.90
37478;DHT22;23334;54.316;10.182;2023-06-19T11:40:48;29.70;95.70
37478;DHT22;23334;54.316;10.182;2023-06-19T11:43:27;29.60;95.20
37478;DHT22;23334;54.316;10.182;2023-06-19T11:48:26;29.90;94.70
37478;DHT22;23334;54.316;10.182;2023-06-19T11:50:52;29.80;95.90
37478;DHT22;23334;54.316;10.182;2023-06-19T11:53:19;29.80;94.10
37478;DHT22;23334;54.316;10.182;2023-06-19T11:55:45;29.70;95.30
37478;DHT22;23334;54.316;10.182;2023-06-19T11:58:11;29.80;95.80
37478;DHT22;23334;54.316;10.182;2023-06-19T12:00:37;29.90;95.90
37478;DHT22;23334;54.316;10.182;2023-06-19T12:03:03;29.90;95.40
37478;DHT22;23334;54.316;10.182;2023-06-19T12:05:28;29.70;95.00
37478;DHT22;23334;54.316;10.182;2023-06-19T12:07:54;29.90;93.20
37478;DHT22;23334;54.316;10.182;2023-06-19T12:10:19;29.70;93.80
37478;DHT22;23334;54.316;10.182;2023-06-19T12:15:11;29.60;92.80
37478;DHT22;23334;54.316;10.182;2023-06-19T12:17:36;29.70;93.10
37478;DHT22;23334;54.316;10.182;2023-06-19T12:20:02;29.60;91.40
37478;DHT22;23334;54.316;10.182;2023-06-19T12:27:23;29.90;92.20
37478;DHT22;23334;54.316;10.182;2023-06-19T12:32:14;30.90;90.10
37478;DHT22;23334;54.316;10.182;2023-06-19T12:42:00;31.00;87.30
37478;DHT22;23334;54.316;10.182;2023-06-19T12:44:25;31.00;86.50
37478;DHT22;23334;54.316;10.182;2023-06-19T12:46:51;31.00;83.70
37478;DHT22;23334;54.316;10.182;2023-06-19T12:54:08;30.50;85.40
37478;DHT22;23334;54.316;10.182;2023-06-19T12:56:34;30.70;89.00
37478;DHT22;23334;54.316;10.182;2023-06-19T12:58:59;31.00;85.60
37478;DHT22;23334;54.316;10.182;2023-06-19T13:01:25;31.10;86.20
37478;DHT22;23334;54.316;10.182;2023-06-19T13:06:16;30.60;83.50
37478;DHT22;23334;54.316;10.182;2023-06-19T13:08:42;30.50;88.90
37478;DHT22;23334;54.316;10.182;2023-06-19T13:11:08;30.40;89.00
37478;DHT22;23334;54.316;10.182;2023-06-19T13:15:59;30.50;90.10
37478;DHT22;23334;54.316;10.182;2023-06-19T13:18:25;30.20;90.00
37478;DHT22;23334;54.316;10.182;2023-06-19T13:23:16;30.50;87.80
37478;DHT22;23334;54.316;10.182;2023-06-19T13:25:41;30.60;87.60
37478;DHT22;23334;54.316;10.182;2023-06-19T13:28:07;30.00;87.40
37478;DHT22;23334;54.316;10.182;2023-06-19T13:30:32;29.70;87.40
37478;DHT22;23334;54.316;10.182;2023-06-19T13:32:58;29.50;88.70
37478;DHT22;23334;54.316;10.182;2023-06-19T13:35:23;29.20;90.10
37478;DHT22;23334;54.316;10.182;2023-06-19T13:37:50;29.10;90.20
37478;DHT22;23334;54.316;10.182;2023-06-19T13:40:16;29.00;90.70
37478;DHT22;23334;54.316;10.182;2023-06-19T13:45:07;28.90;90.90
37478;DHT22;23334;54.316;10.182;2023-06-19T13:49:59;29.20;91.80
37478;DHT22;23334;54.316;10.182;2023-06-19T13:59:43;30.10;91.70
37478;DHT22;23334;54.316;10.182;2023-06-19T14:02:09;30.40;92.00
37478;DHT22;23334;54.316;10.182;2023-06-19T14:04:36;30.30;94.10
37478;DHT22;23334;54.316;10.182;2023-06-19T14:09:28;29.30;97.90
37478;DHT22;23334;54.316;10.182;2023-06-19T14:11:55;29.30;98.50
37478;DHT22;23334;54.316;10.182;2023-06-19T14:14:20;29.10;99.50
37478;DHT22;23334;54.316;10.182;2023-06-19T14:24:04;28.60;99.90
37478;DHT22;23334;54.316;10.182;2023-06-19T14:28:55;28.50;99.90
37478;DHT22;23334;54.316;10.182;2023-06-19T14:33:48;28.20;99.90
37478;DHT22;23334;54.316;10.182;2023-06-19T14:38:40;28.00;99.90
37478;DHT22;23334;54.316;10.182;2023-06-19T14:41:05;28.00;99.90
37478;DHT22;23334;54.316;10.182;2023-06-19T14:43:31;27.80;99.90
37478;DHT22;23334;54.316;10.182;2023-06-19T14:45:58;27.60;99.90
37478;DHT22;23334;54.316;10.182;2023-06-19T14:48:23;27.50;99.90
37478;DHT22;23334;54.316;10.182;2023-06-19T14:50:49;27.30;99.90
37478;DHT22;23334;54.316;10.182;2023-06-19T15:03:04;26.80;99.90
37478;DHT22;23334;54.316;10.182;2023-06-19T15:05:30;26.90;99.90
37478;DHT22;23334;54.316;10.182;2023-06-19T15:07:55;27.00;99.90
37478;DHT22;23334;54.316;10.182;2023-06-19T15:10:20;27.00;99.90
37478;DHT22;23334;54.316;10.182;2023-06-19T15:12:46;27.10;99.90
37478;DHT22;23334;54.316;10.182;2023-06-19T15:15:11;27.30;99.90
37478;DHT22;23334;54.316;10.182;2023-06-19T15:17:37;27.30;99.90
37478;DHT22;23334;54.316;10.182;2023-06-19T15:20:04;27.20;99.90
37478;DHT22;23334;54.316;10.182;2023-06-19T15:24:55;26.90;99.90
37478;DHT22;23334;54.316;10.182;2023-06-19T15:34:39;25.90;99.90
37478;DHT22;23334;54.316;10.182;2023-06-19T15:37:06;25.90;99.90
37478;DHT22;23334;54.316;10.182;2023-06-19T15:39:32;25.80;99.90
37478;DHT22;23334;54.316;10.182;2023-06-19T15:41:57;25.60;99.90
37478;DHT22;23334;54.316;10.182;2023-06-19T15:49:14;25.00;99.90
37478;DHT22;23334;54.316;10.182;2023-06-19T15:51:40;25.10;99.90
37478;DHT22;23334;54.316;10.182;2023-06-19T15:54:06;25.20;99.90
37478;DHT22;23334;54.316;10.182;2023-06-19T16:01:23;25.80;99.90
37478;DHT22;23334;54.316;10.182;2023-06-19T16:03:50;26.00;99.90
37478;DHT22;23334;54.316;10.182;2023-06-19T16:06:16;26.20;99.90
37478;DHT22;23334;54.316;10.182;2023-06-19T16:11:10;25.90;99.90
37478;DHT22;23334;54.316;10.182;2023-06-19T16:13:35;25.70;99.90
37478;DHT22;23334;54.316;10.182;2023-06-19T16:16:01;25.40;99.90
37478;DHT22;23334;54.316;10.182;2023-06-19T16:35:28;25.00;99.90
37478;DHT22;23334;54.316;10.182;2023-06-19T16:37:54;24.90;99.90
37478;DHT22;23334;54.316;10.182;2023-06-19T16:40:20;24.90;99.90
37478;DHT22;23334;54.316;10.182;2023-06-19T16:45:12;24.80;99.90
37478;DHT22;23334;54.316;10.182;2023-06-19T16:47:38;24.90;99.90
37478;DHT22;23334;54.316;10.182;2023-06-19T16:50:03;25.00;99.90
37478;DHT22;23334;54.316;10.182;2023-06-19T16:52:29;25.10;99.90
37478;DHT22;23334;54.316;10.182;2023-06-19T16:54:54;25.20;99.90
37478;DHT22;23334;54.316;10.182;2023-06-19T16:59:47;25.30;99.90
37478;DHT22;23334;54.316;10.182;2023-06-19T17:02:13;25.40;99.90
37478;DHT22;23334;54.316;10.182;2023-06-19T17:07:04;25.50;99.90
37478;DHT22;23334;54.316;10.182;2023-06-19T17:09:30;25.40;99.90
37478;DHT22;23334;54.316;10.182;2023-06-19T17:11:55;25.30;99.90
37478;DHT22;23334;54.316;10.182;2023-06-19T17:16:47;25.10;99.90
37478;DHT22;23334;54.316;10.182;2023-06-19T17:19:13;25.00;99.90
37478;DHT22;23334;54.316;10.182;2023-06-19T17:21:38;24.80;99.90
37478;DHT22;23334;54.316;10.182;2023-06-19T17:24:04;24.70;99.90
37478;DHT22;23334;54.316;10.182;2023-06-19T17:26:30;24.60;99.90
37478;DHT22;23334;54.316;10.182;2023-06-19T17:36:13;24.20;99.90
37478;DHT22;23334;54.316;10.182;2023-06-19T17:38:38;24.20;99.90
37478;DHT22;23334;54.316;10.182;2023-06-19T17:41:04;24.10;99.90
37478;DHT22;23334;54.316;10.182;2023-06-19T17:43:29;24.10;99.90
37478;DHT22;23334;54.316;10.182;2023-06-19T17:45:55;24.10;99.90
37478;DHT22;23334;54.316;10.182;2023-06-19T17:48:20;24.10;99.90
37478;DHT22;23334;54.316;10.182;2023-06-19T17:50:47;24.00;99.90
37478;DHT22;23334;54.316;10.182;2023-06-19T17:53:12;24.00;99.90
37478;DHT22;23334;54.316;10.182;2023-06-19T18:00:31;23.70;99.90
37478;DHT22;23334;54.316;10.182;2023-06-19T18:02:57;23.60;99.90
37478;DHT22;23334;54.316;10.182;2023-06-19T18:05:22;23.50;99.90
37478;DHT22;23334;54.316;10.182;2023-06-19T18:12:40;23.20;99.90
37478;DHT22;23334;54.316;10.182;2023-06-19T18:15:06;23.10;99.90
37478;DHT22;23334;54.316;10.182;2023-06-19T18:17:33;23.10;99.90
37478;DHT22;23334;54.316;10.182;2023-06-19T18:27:16;22.70;99.90
37478;DHT22;23334;54.316;10.182;2023-06-19T18:29:43;22.60;99.90
37478;DHT22;23334;54.316;10.182;2023-06-19T18:32:09;22.50;99.90
37478;DHT22;23334;54.316;10.182;2023-06-19T18:39:26;22.30;99.90
37478;DHT22;23334;54.316;10.182;2023-06-19T18:41:52;22.20;99.90
37478;DHT22;23334;54.316;10.182;2023-06-19T18:54:03;21.70;99.90
37478;DHT22;23334;54.316;10.182;2023-06-19T18:56:28;21.60;99.90
37478;DHT22;23334;54.316;10.182;2023-06-19T18:58:54;21.50;99.90
37478;DHT22;23334;54.316;10.182;2023-06-19T19:01:19;21.40;99.90
37478;DHT22;23334;54.316;10.182;2023-06-19T19:03:45;21.30;99.90
37478;DHT22;23334;54.316;10.182;2023-06-19T19:06:11;21.20;99.90
37478;DHT22;23334;54.316;10.182;2023-06-19T19:08:36;21.20;99.90
37478;DHT22;23334;54.316;10.182;2023-06-19T19:11:02;21.10;99.90
37478;DHT22;23334;54.316;10.182;2023-06-19T19:18:20;20.90;99.90
37478;DHT22;23334;54.316;10.182;2023-06-19T19:20:46;20.80;99.90
37478;DHT22;23334;54.316;10.182;2023-06-19T19:25:38;20.60;99.90
37478;DHT22;23334;54.316;10.182;2023-06-19T19:28:04;20.60;99.90
37478;DHT22;23334;54.316;10.182;2023-06-19T19:32:56;20.40;99.90
37478;DHT22;23334;54.316;10.182;2023-06-19T19:35:21;20.30;99.90
37478;DHT22;23334;54.316;10.182;2023-06-19T19:37:47;20.20;99.90
37478;DHT22;23334;54.316;10.182;2023-06-19T19:40:12;20.10;99.90
37478;DHT22;23334;54.316;10.182;2023-06-19T19:45:06;20.00;99.90
37478;DHT22;23334;54.316;10.182;2023-06-19T19:47:34;19.90;99.90
37478;DHT22;23334;54.316;10.182;2023-06-19T19:54:52;19.60;99.90
37478;DHT22;23334;54.316;10.182;2023-06-19T19:57:17;19.60;99.90
37478;DHT22;23334;54.316;10.182;2023-06-19T19:59:43;19.50;99.90
37478;DHT22;23334;54.316;10.182;2023-06-19T20:04:36;19.40;99.90
37478;DHT22;23334;54.316;10.182;2023-06-19T20:07:04;19.40;99.90
37478;DHT22;23334;54.316;10.182;2023-06-19T20:09:30;19.30;99.90
37478;DHT22;23334;54.316;10.182;2023-06-19T20:11:55;19.20;99.90
37478;DHT22;23334;54.316;10.182;2023-06-19T20:16:47;19.10;99.90
37478;DHT22;23334;54.316;10.182;2023-06-19T20:24:05;18.90;99.90
37478;DHT22;23334;54.316;10.182;2023-06-19T20:28:58;18.80;99.90
37478;DHT22;23334;54.316;10.182;2023-06-19T20:31:23;18.70;99.90
37478;DHT22;23334;54.316;10.182;2023-06-19T20:33:49;18.60;99.90
37478;DHT22;23334;54.316;10.182;2023-06-19T20:36:14;18.60;99.90
37478;DHT22;23334;54.316;10.182;2023-06-19T20:38:40;18.50;99.90
37478;DHT22;23334;54.316;10.182;2023-06-19T20:48:27;18.20;99.90
37478;DHT22;23334;54.316;10.182;2023-06-19T20:50:53;18.10;99.90
37478;DHT22;23334;54.316;10.182;2023-06-19T21:00:39;17.80;99.90
37478;DHT22;23334;54.316;10.182;2023-06-19T21:03:04;17.80;99.90
37478;DHT22;23334;54.316;10.182;2023-06-19T21:05:31;17.70;99.90
37478;DHT22;23334;54.316;10.182;2023-06-19T21:07:56;17.60;99.90
37478;DHT22;23334;54.316;10.182;2023-06-19T21:10:22;17.60;99.90
37478;DHT22;23334;54.316;10.182;2023-06-19T21:22:36;17.30;99.90
37478;DHT22;23334;54.316;10.182;2023-06-19T21:29:55;17.10;99.90
37478;DHT22;23334;54.316;10.182;2023-06-19T21:32:24;17.00;99.90
37478;DHT22;23334;54.316;10.182;2023-06-19T21:39:41;16.80;99.90
37478;DHT22;23334;54.316;10.182;2023-06-19T21:46:59;16.70;99.90
37478;DHT22;23334;54.316;10.182;2023-06-19T21:49:25;16.60;99.90
37478;DHT22;23334;54.316;10.182;2023-06-19T21:54:16;16.50;99.90
37478;DHT22;23334;54.316;10.182;2023-06-19T21:56:42;16.50;99.90
37478;DHT22;23334;54.316;10.182;2023-06-19T21:59:08;16.30;99.90
37478;DHT22;23334;54.316;10.182;2023-06-19T22:01:33;16.30;99.90
37478;DHT22;23334;54.316;10.182;2023-06-19T22:11:16;15.80;99.90
37478;DHT22;23334;54.316;10.182;2023-06-19T22:13:42;15.70;99.90